createdAt,value
2022-10-28T00:01:50.438Z,99.90
2022-10-28T00:04:20.374Z,99.90
2022-10-28T00:06:51.113Z,99.90
2022-10-28T00:09:20.290Z,99.90
2022-10-28T00:11:56.856Z,99.90
2022-10-28T00:14:29.535Z,99.90
2022-10-28T00:17:12.712Z,99.90
2022-10-28T00:19:45.093Z,99.90
2022-10-28T00:22:15.864Z,99.90
2022-10-28T00:24:45.038Z,99.90
2022-10-28T00:27:14.333Z,99.90
2022-10-28T00:29:43.715Z,99.90
2022-10-28T00:32:12.826Z,99.90
2022-10-28T00:34:42.020Z,99.90
2022-10-28T00:37:11.126Z,99.90
2022-10-28T00:39:41.827Z,99.90
2022-10-28T00:42:13.505Z,99.90
2022-10-28T00:45:00.895Z,99.90
2022-10-28T00:47:45.000Z,99.90
2022-10-28T00:50:35.604Z,99.90
2022-10-28T00:53:11.205Z,99.90
2022-10-28T00:55:43.277Z,99.90
2022-10-28T00:58:15.287Z,99.90
2022-10-28T01:00:44.592Z,99.90
2022-10-28T01:03:14.578Z,99.90
2022-10-28T01:05:47.965Z,99.90
2022-10-28T01:08:18.690Z,99.90
2022-10-28T01:11:28.264Z,99.90
2022-10-28T01:14:25.184Z,99.90
2022-10-28T01:17:37.431Z,99.90
2022-10-28T01:20:55.314Z,99.90
2022-10-28T01:23:36.623Z,99.90
2022-10-28T01:27:06.429Z,99.90
2022-10-28T01:30:07.251Z,99.90
2022-10-28T01:32:53.542Z,99.90
2022-10-28T01:35:32.181Z,99.90
2022-10-28T01:38:20.869Z,99.90
2022-10-28T01:41:00.213Z,99.90
2022-10-28T01:43:35.864Z,99.90
2022-10-28T01:46:13.080Z,99.90
2022-10-28T01:48:52.474Z,99.90
2022-10-28T01:51:28.427Z,99.90
2022-10-28T01:54:02.555Z,99.90
2022-10-28T01:56:39.280Z,99.90
2022-10-28T01:59:14.224Z,99.90
2022-10-28T02:01:43.364Z,99.90
2022-10-28T02:04:14.140Z,99.90
2022-10-28T02:06:47.862Z,99.90
2022-10-28T02:09:31.402Z,99.90
2022-10-28T02:12:23.921Z,99.90
2022-10-28T02:15:20.984Z,99.90
2022-10-28T02:18:22.014Z,99.90
2022-10-28T02:21:00.464Z,99.90
2022-10-28T02:23:43.771Z,99.90
2022-10-28T02:26:23.606Z,99.90
2022-10-28T02:29:04.501Z,99.90
2022-10-28T02:31:39.805Z,99.90
2022-10-28T02:34:15.726Z,57.80
2022-10-28T02:36:52.828Z,99.90
2022-10-28T02:39:30.665Z,99.90
2022-10-28T02:42:05.317Z,99.90
2022-10-28T02:44:41.527Z,99.90
2022-10-28T02:47:19.255Z,1.00
2022-10-28T02:49:56.844Z,99.90
2022-10-28T02:52:32.693Z,99.90
2022-10-28T02:55:05.609Z,99.90
2022-10-28T02:57:39.920Z,99.90
2022-10-28T03:00:13.635Z,99.90
2022-10-28T03:02:43.216Z,99.90
2022-10-28T03:05:12.637Z,99.90
2022-10-28T03:07:43.747Z,99.90
2022-10-28T03:10:12.888Z,99.90
2022-10-28T03:12:41.851Z,99.90
2022-10-28T03:15:12.113Z,99.90
2022-10-28T03:17:42.107Z,99.90
2022-10-28T03:20:12.618Z,99.90
2022-10-28T03:22:45.219Z,99.90
2022-10-28T03:25:14.366Z,99.90
2022-10-28T03:27:43.276Z,99.90
2022-10-28T03:30:14.716Z,99.90
2022-10-28T03:32:44.077Z,99.90
2022-10-28T03:35:13.440Z,99.90
2022-10-28T03:37:45.404Z,99.90
2022-10-28T03:40:15.478Z,99.90
2022-10-28T03:42:44.824Z,99.90
2022-10-28T03:45:13.887Z,99.90
2022-10-28T03:47:43.971Z,99.90
2022-10-28T03:50:13.107Z,99.90
2022-10-28T03:52:45.612Z,99.90
2022-10-28T03:55:14.634Z,99.90
2022-10-28T03:57:43.799Z,99.90
2022-10-28T04:00:14.461Z,99.90
2022-10-28T04:02:43.640Z,99.90
2022-10-28T04:05:12.749Z,99.90
2022-10-28T04:07:41.692Z,99.90
2022-10-28T04:10:13.105Z,99.90
2022-10-28T04:12:42.281Z,99.90
2022-10-28T04:15:11.736Z,99.90
2022-10-28T04:17:41.172Z,99.90
2022-10-28T04:20:11.661Z,99.90
2022-10-28T04:22:40.725Z,99.90
2022-10-28T04:25:11.670Z,99.90
2022-10-28T04:27:40.883Z,99.90
2022-10-28T04:30:12.681Z,99.90
2022-10-28T04:32:42.423Z,99.90
2022-10-28T04:35:13.105Z,99.90
2022-10-28T04:37:43.379Z,99.90
2022-10-28T04:40:14.784Z,99.90
2022-10-28T04:42:43.911Z,99.90
2022-10-28T04:45:13.162Z,99.90
2022-10-28T04:47:42.153Z,99.90
2022-10-28T04:50:11.520Z,99.90
2022-10-28T04:52:40.521Z,99.90
2022-10-28T04:55:10.768Z,99.90
2022-10-28T04:57:41.137Z,99.90
2022-10-28T05:00:12.464Z,99.90
2022-10-28T05:02:45.260Z,99.90
2022-10-28T05:07:49.924Z,99.90
2022-10-28T05:10:18.922Z,99.90
2022-10-28T05:12:48.908Z,99.90
2022-10-28T05:15:18.150Z,99.90
2022-10-28T05:17:48.520Z,99.90
2022-10-28T05:20:19.507Z,99.90
2022-10-28T05:22:49.400Z,99.90
2022-10-28T05:25:19.204Z,99.90
2022-10-28T05:27:49.434Z,99.90
2022-10-28T05:30:18.532Z,99.90
2022-10-28T05:32:49.309Z,99.90
2022-10-28T05:35:20.354Z,99.90
2022-10-28T05:37:49.063Z,99.90
2022-10-28T05:40:17.847Z,99.90
2022-10-28T05:42:46.472Z,99.90
2022-10-28T05:45:16.927Z,99.90
2022-10-28T05:47:46.805Z,99.90
2022-10-28T05:50:17.950Z,99.90
2022-10-28T05:52:48.729Z,99.90
2022-10-28T05:55:19.571Z,99.90
2022-10-28T05:57:48.651Z,99.90
2022-10-28T06:00:21.517Z,99.90
2022-10-28T06:02:50.690Z,99.90
2022-10-28T06:05:19.546Z,99.90
2022-10-28T06:07:48.276Z,99.90
2022-10-28T06:10:16.903Z,99.90
2022-10-28T06:12:43.969Z,99.90
2022-10-28T06:15:13.969Z,99.90
2022-10-28T06:17:48.626Z,99.90
2022-10-28T06:20:18.937Z,99.90
2022-10-28T06:22:49.724Z,99.90
2022-10-28T06:25:20.818Z,99.90
2022-10-28T06:27:53.729Z,99.90
2022-10-28T06:30:23.514Z,99.90
2022-10-28T06:32:56.460Z,99.90
2022-10-28T06:35:28.235Z,99.90
2022-10-28T06:37:57.221Z,99.90
2022-10-28T06:40:27.851Z,99.90
2022-10-28T06:43:00.202Z,99.90
2022-10-28T06:45:29.697Z,99.90
2022-10-28T06:48:03.623Z,99.90
2022-10-28T06:50:35.211Z,99.90
2022-10-28T06:53:04.726Z,99.90
2022-10-28T06:55:33.499Z,99.90
2022-10-28T06:58:04.230Z,99.90
2022-10-28T07:00:34.979Z,99.90
2022-10-28T07:03:05.364Z,99.90
2022-10-28T07:05:34.070Z,99.90
2022-10-28T07:08:02.763Z,99.90
2022-10-28T07:10:31.424Z,99.90
2022-10-28T07:13:00.232Z,99.90
2022-10-28T07:15:28.853Z,99.90
2022-10-28T07:17:59.734Z,99.90
2022-10-28T07:20:32.096Z,99.90
2022-10-28T07:23:03.011Z,99.90
2022-10-28T07:25:32.946Z,99.90
2022-10-28T07:28:02.299Z,99.90
2022-10-28T07:30:32.668Z,99.90
2022-10-28T07:33:01.729Z,99.90
2022-10-28T07:35:33.003Z,99.90
2022-10-28T07:38:01.618Z,99.90
2022-10-28T07:40:30.305Z,99.90
2022-10-28T07:43:00.176Z,1.00
2022-10-28T07:45:28.926Z,1.00
2022-10-28T07:47:57.612Z,1.00
2022-10-28T07:50:26.537Z,1.00
2022-10-28T07:52:56.841Z,99.90
2022-10-28T07:55:26.277Z,99.90
2022-10-28T07:57:55.390Z,1.00
2022-10-28T08:00:24.418Z,53.00
2022-10-28T08:02:53.066Z,99.90
2022-10-28T08:05:21.882Z,1.00
2022-10-28T08:07:50.591Z,10.00
2022-10-28T08:10:20.651Z,99.90
2022-10-28T08:12:49.286Z,99.90
2022-10-28T08:15:18.513Z,99.90
2022-10-28T08:17:53.924Z,99.90
2022-10-28T08:20:22.971Z,99.90
2022-10-28T08:22:52.016Z,99.90
2022-10-28T08:25:22.683Z,99.90
2022-10-28T08:27:51.462Z,99.90
2022-10-28T08:30:20.060Z,99.90
2022-10-28T08:32:48.974Z,99.90
2022-10-28T08:35:17.930Z,99.90
2022-10-28T08:37:52.969Z,99.90
2022-10-28T08:40:44.362Z,99.90
2022-10-28T08:43:40.269Z,99.90
2022-10-28T08:46:27.692Z,99.90
2022-10-28T08:48:56.815Z,99.90
2022-10-28T08:51:40.096Z,99.90
2022-10-28T08:54:19.245Z,99.90
2022-10-28T08:56:55.026Z,99.90
2022-10-28T08:59:30.546Z,99.90
2022-10-28T09:02:06.125Z,99.90
2022-10-28T09:04:41.363Z,99.90
2022-10-28T09:07:18.982Z,99.90
2022-10-28T09:09:48.996Z,99.90
2022-10-28T09:12:36.541Z,99.90
2022-10-28T09:15:25.169Z,99.90
2022-10-28T09:17:58.312Z,99.90
2022-10-28T09:20:51.289Z,99.90
2022-10-28T09:23:25.478Z,99.90
2022-10-28T09:26:15.007Z,99.90
2022-10-28T09:29:00.956Z,99.40
2022-10-28T09:31:36.876Z,98.20
2022-10-28T09:34:25.305Z,98.40
2022-10-28T09:36:59.864Z,97.30
2022-10-28T09:39:43.896Z,97.40
2022-10-28T09:42:21.224Z,96.80
2022-10-28T09:44:58.047Z,96.60
2022-10-28T09:47:35.841Z,96.60
2022-10-28T09:50:17.035Z,96.90
2022-10-28T09:53:00.566Z,96.20
2022-10-28T09:55:29.804Z,96.00
2022-10-28T09:57:58.562Z,94.10
2022-10-28T10:00:28.981Z,92.50
2022-10-28T10:02:59.935Z,91.90
2022-10-28T10:05:31.166Z,91.50
2022-10-28T10:08:06.041Z,91.80
2022-10-28T10:10:48.024Z,91.70
2022-10-28T10:13:21.666Z,91.70
2022-10-28T10:15:57.993Z,91.10
2022-10-28T10:18:32.998Z,92.10
2022-10-28T10:21:02.796Z,91.80
2022-10-28T10:23:34.647Z,91.90
2022-10-28T10:26:12.321Z,92.40
2022-10-28T10:28:46.903Z,92.60
2022-10-28T10:31:22.556Z,92.30
2022-10-28T10:33:54.045Z,91.50
2022-10-28T10:36:28.465Z,91.60
2022-10-28T10:38:59.654Z,91.20
2022-10-28T10:41:36.618Z,91.50
2022-10-28T10:44:32.801Z,90.80
2022-10-28T10:47:22.823Z,90.00
2022-10-28T10:49:52.199Z,90.20
2022-10-28T10:52:26.261Z,89.00
2022-10-28T10:55:06.908Z,88.60
2022-10-28T10:57:36.249Z,86.30
2022-10-28T11:00:06.740Z,84.40
2022-10-28T11:02:40.952Z,82.20
2022-10-28T11:05:12.213Z,82.70
2022-10-28T11:07:48.999Z,80.30
2022-10-28T11:10:26.751Z,78.80
2022-10-28T11:12:58.079Z,78.90
2022-10-28T11:15:29.873Z,78.30
2022-10-28T11:18:03.960Z,77.80
2022-10-28T11:20:47.838Z,77.30
2022-10-28T11:23:38.461Z,73.10
2022-10-28T11:26:12.615Z,72.00
2022-10-28T11:29:08.701Z,68.20
2022-10-28T11:32:22.351Z,66.80
2022-10-28T11:35:31.129Z,66.90
2022-10-28T11:38:17.430Z,64.20
2022-10-28T11:41:08.377Z,63.50
2022-10-28T11:43:54.816Z,61.80
2022-10-28T11:46:46.618Z,59.60
2022-10-28T11:50:01.663Z,56.70
2022-10-28T11:52:57.913Z,56.60
2022-10-28T11:55:37.200Z,54.50
2022-10-28T11:58:20.425Z,53.60
2022-10-28T12:01:05.047Z,54.10
2022-10-28T12:04:08.816Z,51.90
2022-10-28T12:07:02.668Z,52.70
2022-10-28T12:09:54.765Z,52.60
2022-10-28T12:12:34.875Z,52.50
2022-10-28T12:15:20.564Z,51.80
2022-10-28T12:17:59.948Z,52.50
2022-10-28T12:20:37.780Z,52.10
2022-10-28T12:23:14.291Z,50.10
2022-10-28T12:25:50.277Z,50.10
2022-10-28T12:28:27.271Z,48.50
2022-10-28T12:30:58.675Z,46.90
2022-10-28T12:33:36.771Z,46.90
2022-10-28T12:36:26.230Z,46.50
2022-10-28T12:39:02.697Z,46.00
2022-10-28T12:41:53.449Z,44.20
2022-10-28T12:44:25.810Z,43.90
2022-10-28T12:47:08.089Z,42.90
2022-10-28T12:49:54.724Z,42.50
2022-10-28T12:52:39.576Z,42.00
2022-10-28T12:55:27.012Z,41.60
2022-10-28T12:58:06.266Z,42.00
2022-10-28T13:00:44.374Z,42.20
2022-10-28T13:03:15.815Z,41.80
2022-10-28T13:05:51.857Z,41.90
2022-10-28T13:09:09.603Z,41.00
2022-10-28T13:12:34.504Z,40.70
2022-10-28T13:15:40.049Z,42.00
2022-10-28T13:18:53.674Z,41.60
2022-10-28T13:21:39.521Z,41.80
2022-10-28T13:24:21.012Z,42.10
2022-10-28T13:26:51.145Z,41.50
2022-10-28T13:29:28.559Z,41.50
2022-10-28T13:31:59.254Z,41.60
2022-10-28T13:34:36.044Z,40.70
2022-10-28T13:37:08.870Z,41.20
2022-10-28T13:39:46.840Z,41.80
2022-10-28T13:42:48.139Z,41.60
2022-10-28T13:45:50.611Z,42.20
2022-10-28T13:48:48.156Z,42.90
2022-10-28T13:51:46.826Z,43.20
2022-10-28T13:54:28.540Z,44.20
2022-10-28T13:57:07.939Z,45.10
2022-10-28T13:59:53.583Z,45.90
2022-10-28T14:02:36.782Z,46.60
2022-10-28T14:05:11.036Z,47.60
2022-10-28T14:07:53.100Z,48.40
2022-10-28T14:10:27.100Z,49.10
2022-10-28T14:13:00.714Z,49.40
2022-10-28T14:15:33.333Z,49.40
2022-10-28T14:18:16.325Z,49.50
2022-10-28T14:21:01.648Z,50.00
2022-10-28T14:24:31.691Z,51.00
2022-10-28T14:27:44.038Z,51.70
2022-10-28T14:30:28.227Z,51.40
2022-10-28T14:33:30.974Z,51.50
2022-10-28T14:36:32.363Z,52.60
2022-10-28T14:39:41.294Z,53.20
2022-10-28T14:42:52.062Z,54.00
2022-10-28T14:45:39.657Z,54.20
2022-10-28T14:48:53.189Z,55.70
2022-10-28T14:51:27.412Z,56.90
2022-10-28T14:54:01.982Z,58.20
2022-10-28T14:56:33.599Z,60.00
2022-10-28T14:59:24.312Z,62.20
2022-10-28T15:02:05.041Z,63.40
2022-10-28T15:04:34.204Z,65.60
2022-10-28T15:07:04.367Z,67.90
2022-10-28T15:09:36.285Z,70.50
2022-10-28T15:12:09.826Z,73.80
2022-10-28T15:14:42.178Z,77.10
2022-10-28T15:17:18.804Z,78.40
2022-10-28T15:19:49.969Z,79.30
2022-10-28T15:22:24.225Z,81.60
2022-10-28T15:25:01.727Z,84.70
2022-10-28T15:27:33.415Z,86.60
2022-10-28T15:30:03.190Z,90.00
2022-10-28T15:32:35.181Z,91.50
2022-10-28T15:35:39.653Z,92.50
2022-10-28T15:38:40.348Z,93.30
2022-10-28T15:41:42.496Z,94.30
2022-10-28T15:44:34.977Z,95.20
2022-10-28T15:47:28.894Z,95.90
2022-10-28T15:50:03.554Z,97.90
2022-10-28T15:52:43.168Z,99.40
2022-10-28T15:58:42.342Z,99.90
2022-10-28T16:01:30.135Z,99.90
2022-10-28T16:03:59.277Z,99.90
2022-10-28T16:06:32.432Z,99.90
2022-10-28T16:09:06.556Z,99.90
2022-10-28T16:11:44.114Z,99.90
2022-10-28T16:14:37.683Z,99.90
2022-10-28T16:17:13.846Z,99.90
2022-10-28T16:19:47.930Z,99.90
2022-10-28T16:22:18.461Z,99.90
2022-10-28T16:24:48.128Z,99.90
2022-10-28T16:27:23.535Z,99.90
2022-10-28T16:29:52.631Z,99.90
2022-10-28T16:32:28.252Z,99.90
2022-10-28T16:34:58.758Z,99.90
2022-10-28T16:37:30.486Z,99.90
2022-10-28T16:39:59.413Z,99.90
2022-10-28T16:42:29.576Z,99.90
2022-10-28T16:44:58.353Z,99.90
2022-10-28T16:47:27.699Z,99.90
2022-10-28T16:49:57.914Z,99.90
2022-10-28T16:52:30.141Z,99.90
2022-10-28T16:54:59.913Z,99.90
2022-10-28T16:57:30.193Z,99.90
2022-10-28T16:59:58.932Z,99.90
2022-10-28T17:02:32.752Z,99.90
2022-10-28T17:05:05.002Z,99.90
2022-10-28T17:07:33.781Z,99.90
2022-10-28T17:10:02.583Z,99.90
2022-10-28T17:12:32.799Z,99.90
2022-10-28T17:15:01.559Z,99.90
2022-10-28T17:17:30.222Z,99.90
2022-10-28T17:19:58.971Z,99.90
2022-10-28T17:22:28.144Z,99.90
2022-10-28T17:24:56.722Z,99.90
2022-10-28T17:27:25.953Z,99.90
2022-10-28T17:29:56.129Z,99.90
2022-10-28T17:32:24.951Z,99.90
2022-10-28T17:34:54.208Z,99.90
2022-10-28T17:37:23.101Z,99.90
2022-10-28T17:39:52.457Z,99.90
2022-10-28T17:42:21.316Z,99.90
2022-10-28T17:44:50.131Z,99.90
2022-10-28T17:47:20.547Z,99.90
2022-10-28T17:49:49.300Z,99.90
2022-10-28T17:52:18.173Z,99.90
2022-10-28T17:54:46.857Z,99.90
2022-10-28T17:57:15.524Z,99.90
2022-10-28T17:59:44.429Z,99.90
2022-10-28T18:02:14.735Z,99.90
2022-10-28T18:04:44.908Z,99.90
2022-10-28T18:07:13.561Z,99.90
2022-10-28T18:09:42.487Z,99.90
2022-10-28T18:12:12.749Z,99.90
2022-10-28T18:14:41.628Z,99.90
2022-10-28T18:17:10.246Z,99.90
2022-10-28T18:19:38.890Z,99.90
2022-10-28T18:22:08.951Z,99.90
2022-10-28T18:24:37.676Z,99.90
2022-10-28T18:27:06.352Z,99.90
2022-10-28T18:29:34.995Z,99.90
2022-10-28T18:32:04.688Z,99.90
2022-10-28T18:34:33.570Z,99.90
2022-10-28T18:37:04.145Z,99.90
2022-10-28T18:39:34.247Z,99.90
2022-10-28T18:42:03.825Z,99.90
2022-10-28T18:44:32.804Z,99.90
2022-10-28T18:47:02.054Z,99.90
2022-10-28T18:49:31.424Z,99.90
2022-10-28T18:52:01.120Z,99.90
2022-10-28T18:54:29.831Z,99.90
2022-10-28T18:56:59.879Z,99.90
2022-10-28T18:59:28.678Z,99.90
2022-10-28T19:01:57.341Z,99.90
2022-10-28T19:04:26.524Z,99.90
2022-10-28T19:06:55.290Z,99.90
2022-10-28T19:09:23.995Z,99.90
2022-10-28T19:11:52.786Z,99.90
2022-10-28T19:14:22.806Z,99.90
2022-10-28T19:16:51.814Z,99.90
2022-10-28T19:19:20.827Z,99.90
2022-10-28T19:21:51.208Z,99.90
2022-10-28T19:24:19.968Z,99.90
2022-10-28T19:26:48.847Z,99.90
2022-10-28T19:29:17.721Z,99.90
2022-10-28T19:31:48.619Z,99.90
2022-10-28T19:34:17.327Z,99.90
2022-10-28T19:36:46.452Z,99.90
2022-10-28T19:39:15.737Z,99.90
2022-10-28T19:41:44.904Z,99.90
2022-10-28T19:44:13.798Z,99.90
2022-10-28T19:46:42.644Z,99.90
2022-10-28T19:49:12.674Z,99.90
2022-10-28T19:51:43.255Z,99.90
2022-10-28T19:54:15.400Z,99.90
2022-10-28T19:56:45.550Z,99.90
2022-10-28T19:59:14.869Z,99.90
2022-10-28T20:01:44.239Z,99.90
2022-10-28T20:04:14.611Z,99.90
2022-10-28T20:06:44.165Z,99.90
2022-10-28T20:09:13.260Z,99.90
2022-10-28T20:11:42.692Z,99.90
2022-10-28T20:14:13.369Z,99.90
2022-10-28T20:16:43.748Z,99.90
2022-10-28T20:19:14.518Z,99.90
2022-10-28T20:21:44.742Z,99.90
2022-10-28T20:24:13.437Z,99.90
2022-10-28T20:26:42.121Z,99.90
2022-10-28T20:29:10.716Z,99.90
2022-10-28T20:31:40.020Z,99.90
2022-10-28T20:34:09.893Z,99.90
2022-10-28T20:36:42.222Z,99.90
2022-10-28T20:39:15.808Z,99.90
2022-10-28T20:41:47.344Z,99.90
2022-10-28T20:44:16.690Z,99.90
2022-10-28T20:46:48.163Z,99.90
2022-10-28T20:49:17.453Z,99.90
2022-10-28T20:51:47.515Z,99.90
2022-10-28T20:54:16.281Z,99.90
2022-10-28T20:56:44.976Z,99.90
2022-10-28T20:59:13.551Z,99.90
2022-10-28T21:01:42.994Z,99.90
2022-10-28T21:04:12.826Z,99.90
2022-10-28T21:06:41.800Z,99.90
2022-10-28T21:09:12.218Z,99.90
2022-10-28T21:11:41.117Z,99.90
2022-10-28T21:14:09.906Z,99.90
2022-10-28T21:16:38.588Z,99.90
2022-10-28T21:19:07.258Z,99.90
2022-10-28T21:21:35.878Z,99.90
2022-10-28T21:24:05.001Z,99.90
2022-10-28T21:26:34.961Z,99.90
2022-10-28T21:29:03.702Z,99.90
2022-10-28T21:31:32.313Z,99.90
2022-10-28T21:34:03.076Z,99.90
2022-10-28T21:36:34.440Z,99.90
2022-10-28T21:39:03.077Z,99.90
2022-10-28T21:41:31.756Z,99.90
2022-10-28T21:44:06.268Z,99.90
2022-10-28T21:46:35.038Z,99.90
2022-10-28T21:49:03.772Z,99.90
2022-10-28T21:51:32.505Z,99.90
2022-10-28T21:54:01.409Z,99.90
2022-10-28T21:56:30.286Z,99.90
2022-10-28T21:58:59.073Z,99.90
2022-10-28T22:01:29.138Z,99.90
2022-10-28T22:03:57.922Z,99.90
2022-10-28T22:06:27.153Z,99.90
2022-10-28T22:08:56.636Z,99.90
2022-10-28T22:11:25.756Z,99.90
2022-10-28T22:13:59.619Z,99.90
2022-10-28T22:16:32.072Z,99.90
2022-10-28T22:19:03.229Z,99.90
2022-10-28T22:21:34.913Z,99.90
2022-10-28T22:24:03.917Z,99.90
2022-10-28T22:26:34.940Z,99.90
2022-10-28T22:29:03.833Z,99.90
2022-10-28T22:31:34.739Z,99.90
2022-10-28T22:34:05.521Z,99.90
2022-10-28T22:36:34.328Z,99.90
2022-10-28T22:39:03.131Z,99.90
2022-10-28T22:41:34.021Z,99.90
2022-10-28T22:44:04.757Z,99.90
2022-10-28T22:46:36.783Z,99.90
2022-10-28T22:49:06.029Z,99.90
2022-10-28T22:51:35.142Z,99.90
2022-10-28T22:54:03.935Z,99.90
2022-10-28T22:56:33.087Z,99.90
2022-10-28T22:59:03.335Z,99.90
2022-10-28T23:01:32.396Z,99.90
2022-10-28T23:04:02.655Z,99.90
2022-10-28T23:06:31.452Z,99.90
2022-10-28T23:09:00.469Z,99.90
2022-10-28T23:11:29.438Z,99.90
2022-10-28T23:13:58.428Z,99.90
2022-10-28T23:16:27.335Z,99.90
2022-10-28T23:18:56.268Z,99.90
2022-10-28T23:21:27.314Z,99.90
2022-10-28T23:23:57.928Z,99.90
2022-10-28T23:26:27.836Z,99.90
2022-10-28T23:28:58.402Z,99.90
2022-10-28T23:31:28.364Z,99.90
2022-10-28T23:33:59.248Z,99.90
2022-10-28T23:36:29.416Z,99.90
2022-10-28T23:38:58.675Z,99.90
2022-10-28T23:41:27.403Z,99.90
2022-10-28T23:43:56.079Z,99.90
2022-10-28T23:46:25.162Z,99.90
2022-10-28T23:48:54.006Z,99.90
2022-10-28T23:51:22.744Z,99.90
2022-10-28T23:53:52.743Z,99.90
2022-10-28T23:56:21.484Z,99.90
2022-10-28T23:58:50.159Z,99.90
